Time;durP1;ratioP1;P1;durP2;ratioP2;P2;SDS_P1;SDS_P2;PMS_P1;PMS_P2;Temp;Humidity;BMP_temperature;BMP_pressure;BME280_temperature;BME280_humidity;BME280_pressure;Samples;Min_cycle;Max_cycle;Signal;HPM_P1;HPM_P2
2022/11/21 00:00:52;;;;;;;5.82;1.67;;;;;;;3.16;100.00;100191.88;4940268;29;20032;-84
2022/11/21 00:03:17;;;;;;;4.65;1.80;;;;;;;3.20;100.00;100189.94;4933174;29;20071;-83
2022/11/21 00:05:45;;;;;;;3.13;1.65;;;;;;;3.11;100.00;100193.13;4934246;29;20121;-84
2022/11/21 00:08:13;;;;;;;3.78;2.10;;;;;;;3.11;100.00;100183.66;4931844;29;20039;-84
2022/11/21 00:10:39;;;;;;;8.82;1.70;;;;;;;3.16;100.00;100188.50;4932659;29;20040;-84
2022/11/21 00:13:07;;;;;;;2.92;1.77;;;;;;;3.17;100.00;100192.72;4938464;29;20483;-84
2022/11/21 00:15:34;;;;;;;2.67;1.70;;;;;;;3.20;100.00;100197.66;4936528;29;20035;-84
2022/11/21 00:18:02;;;;;;;3.00;1.27;;;;;;;3.19;100.00;100198.59;4932477;29;20364;-84
2022/11/21 00:20:28;;;;;;;3.13;1.40;;;;;;;3.20;100.00;100195.06;4933243;29;20031;-84
2022/11/21 00:22:54;;;;;;;3.50;0.98;;;;;;;3.27;100.00;100202.28;4933834;29;20123;-84
2022/11/21 00:25:19;;;;;;;2.88;1.33;;;;;;;3.28;100.00;100201.34;4931740;29;20047;-84
2022/11/21 00:27:45;;;;;;;2.88;1.67;;;;;;;3.33;100.00;100201.00;4932823;29;20031;-84
2022/11/21 00:30:11;;;;;;;2.10;1.20;;;;;;;3.38;100.00;100195.56;4937227;29;20077;-84
2022/11/21 00:32:36;;;;;;;3.50;2.03;;;;;;;3.46;100.00;100201.00;4931372;29;20115;-84
2022/11/21 00:35:02;;;;;;;2.03;1.50;;;;;;;3.56;100.00;100205.44;4933254;29;20134;-84
2022/11/21 00:37:27;;;;;;;2.92;1.25;;;;;;;3.59;100.00;100200.06;4933805;28;20032;-84
2022/11/21 00:39:53;;;;;;;2.63;1.33;;;;;;;3.64;100.00;100192.84;4938693;28;20047;-84
2022/11/21 00:42:18;;;;;;;5.65;1.27;;;;;;;3.71;100.00;100202.72;4929564;29;20031;-85
2022/11/21 00:44:44;;;;;;;2.83;1.50;;;;;;;3.75;100.00;100199.00;4932326;29;20031;-84
2022/11/21 00:47:09;;;;;;;2.95;1.83;;;;;;;3.76;100.00;100186.00;4935185;29;20118;-84
2022/11/21 00:49:35;;;;;;;1.30;0.50;;;;;;;3.85;100.00;100176.78;4932709;29;20060;-84
2022/11/21 00:52:00;;;;;;;2.58;0.70;;;;;;;4.16;100.00;100171.09;4933175;29;20027;-84
2022/11/21 00:54:26;;;;;;;0.88;0.40;;;;;;;4.61;100.00;100164.31;4932485;29;20475;-84
2022/11/21 00:56:51;;;;;;;0.73;0.30;;;;;;;4.91;100.00;100161.19;4931966;29;20434;-84
2022/11/21 00:59:17;;;;;;;1.05;0.30;;;;;;;5.16;100.00;100164.50;4923430;29;20056;-84
2022/11/21 01:01:42;;;;;;;1.75;0.30;;;;;;;5.26;100.00;100160.25;4935922;29;20090;-84
2022/11/21 01:04:07;;;;;;;0.70;0.30;;;;;;;5.32;100.00;100158.03;4931890;29;20487;-84
2022/11/21 01:06:33;;;;;;;0.68;0.20;;;;;;;5.33;100.00;100146.75;4931348;29;20554;-84
2022/11/21 01:08:58;;;;;;;1.83;0.20;;;;;;;5.38;100.00;100141.25;4932994;29;20637;-84
2022/11/21 01:11:24;;;;;;;1.10;0.20;;;;;;;5.51;100.00;100141.09;4932321;29;20127;-84
2022/11/21 01:13:52;;;;;;;0.73;0.20;;;;;;;5.74;100.00;100137.53;4932877;29;20024;-85
2022/11/21 01:16:20;;;;;;;1.42;0.20;;;;;;;5.85;100.00;100128.91;4936446;29;20059;-84
2022/11/21 01:18:46;;;;;;;0.30;0.10;;;;;;;5.89;100.00;100132.94;4938222;29;20032;-84
2022/11/21 01:21:17;;;;;;;0.70;0.20;;;;;;;5.80;100.00;100131.03;4932444;29;20446;-84
2022/11/21 01:23:42;;;;;;;2.75;0.25;;;;;;;5.55;100.00;100127.84;4932946;29;20047;-84
2022/11/21 01:26:10;;;;;;;3.38;0.60;;;;;;;5.30;100.00;100125.50;4932903;29;20035;-84
2022/11/21 01:28:36;;;;;;;2.72;0.60;;;;;;;5.08;100.00;100118.63;4931641;29;20036;-84
2022/11/21 01:31:10;;;;;;;1.95;0.40;;;;;;;4.97;100.00;100114.25;4933673;29;20409;-85
2022/11/21 01:33:37;;;;;;;1.65;0.70;;;;;;;4.81;100.00;100112.97;4925196;29;20024;-84
2022/11/21 01:36:23;;;;;;;2.55;0.55;;;;;;;4.64;100.00;100106.50;4932667;29;20436;-85
2022/11/21 01:38:52;;;;;;;0.90;0.40;;;;;;;4.58;100.00;100097.47;4931102;29;20499;-84
2022/11/21 01:41:39;;;;;;;1.50;0.60;;;;;;;4.54;100.00;100095.22;4934444;29;20123;-84
2022/11/21 01:44:24;;;;;;;0.90;0.45;;;;;;;4.52;100.00;100089.34;4938432;29;20035;-84
2022/11/21 01:46:50;;;;;;;1.30;0.60;;;;;;;4.50;100.00;100092.06;4957149;28;20070;-84
2022/11/21 01:49:26;;;;;;;1.65;0.40;;;;;;;4.46;100.00;100097.56;4938254;29;20187;-84
2022/11/21 01:52:01;;;;;;;1.52;0.70;;;;;;;4.30;100.00;100095.28;4937734;29;20035;-84
2022/11/21 01:54:27;;;;;;;1.08;0.57;;;;;;;4.19;100.00;100083.22;4937854;29;20031;-85
2022/11/21 01:57:11;;;;;;;3.67;0.85;;;;;;;4.13;100.00;100078.50;4939027;29;20036;-84
2022/11/21 01:59:39;;;;;;;4.95;0.63;;;;;;;4.05;100.00;100078.22;4937567;29;20027;-84
2022/11/21 02:02:07;;;;;;;1.75;0.50;;;;;;;4.05;100.00;100077.41;4938117;29;20046;-84
2022/11/21 02:04:34;;;;;;;4.22;0.57;;;;;;;4.03;100.00;100080.09;4938309;29;20170;-84
2022/11/21 02:07:03;;;;;;;1.48;0.60;;;;;;;4.04;100.00;100084.31;4937441;29;20040;-84
2022/11/21 02:09:31;;;;;;;1.20;0.40;;;;;;;4.26;100.00;100089.53;4936837;28;20047;-84
2022/11/21 02:12:04;;;;;;;2.35;0.50;;;;;;;4.44;100.00;100079.59;4937687;29;20232;-84
2022/11/21 02:14:30;;;;;;;0.60;0.25;;;;;;;4.55;100.00;100091.72;4937779;29;20094;-84
2022/11/21 02:17:01;;;;;;;1.20;0.30;;;;;;;4.61;100.00;100091.25;4942418;29;20067;-84
2022/11/21 02:19:52;;;;;;;0.68;0.30;;;;;;;4.58;100.00;100091.47;4936419;29;20403;-84
2022/11/21 02:22:39;;;;;;;1.42;0.40;;;;;;;4.39;100.00;100076.56;4936420;29;20122;-84
2022/11/21 02:25:18;;;;;;;1.10;0.40;;;;;;;4.34;100.00;100068.34;4937685;29;20111;-84
2022/11/21 02:27:45;;;;;;;2.55;0.40;;;;;;;4.45;100.00;100060.63;4934064;29;20039;-84
2022/11/21 02:30:12;;;;;;;2.50;0.40;;;;;;;4.52;100.00;100051.47;4937962;29;20036;-84
2022/11/21 02:32:41;;;;;;;1.77;0.40;;;;;;;4.59;100.00;100049.25;4945424;29;20166;-84
2022/11/21 02:35:07;;;;;;;1.92;0.40;;;;;;;4.66;100.00;100037.53;4942150;28;20131;-84
2022/11/21 02:37:35;;;;;;;0.60;0.25;;;;;;;4.74;100.00;100037.75;4936238;29;20070;-84
2022/11/21 02:40:06;;;;;;;0.65;0.30;;;;;;;4.79;100.00;100045.13;4933946;29;20537;-85
2022/11/21 02:42:36;;;;;;;0.80;0.30;;;;;;;4.60;100.00;100048.31;4951592;28;20032;-85
2022/11/21 02:45:26;;;;;;;1.25;0.40;;;;;;;4.49;100.00;100040.56;4937312;29;20040;-84
2022/11/21 02:47:53;;;;;;;0.82;0.30;;;;;;;4.51;100.00;100034.34;4943788;28;20428;-84
2022/11/21 02:50:25;;;;;;;0.43;0.20;;;;;;;4.56;100.00;100029.69;4933304;29;20032;-85
2022/11/21 02:52:51;;;;;;;2.10;0.30;;;;;;;4.56;100.00;100021.94;4934089;29;20035;-85
2022/11/21 02:55:16;;;;;;;2.25;0.30;;;;;;;4.50;100.00;100030.13;4932536;29;20395;-84
2022/11/21 02:57:42;;;;;;;1.35;0.30;;;;;;;4.48;100.00;100032.00;4951914;28;20096;-85
2022/11/21 03:00:09;;;;;;;0.98;0.30;;;;;;;4.40;100.00;100030.94;4930494;29;20039;-85
2022/11/21 03:02:35;;;;;;;1.75;0.45;;;;;;;4.42;100.00;100029.06;4933798;29;20046;-84
2022/11/21 03:05:01;;;;;;;0.68;0.45;;;;;;;4.46;100.00;100020.16;4933963;29;20054;-84
2022/11/21 03:07:26;;;;;;;0.80;0.32;;;;;;;4.45;100.00;100016.75;4933214;29;20039;-84
2022/11/21 03:09:52;;;;;;;1.30;0.30;;;;;;;4.48;100.00;100007.97;4934008;29;20036;-84
2022/11/21 03:12:17;;;;;;;0.90;0.40;;;;;;;4.51;100.00;100007.75;4933209;29;20424;-84
2022/11/21 03:14:43;;;;;;;1.75;0.40;;;;;;;4.59;100.00;100007.97;4930578;29;20042;-84
2022/11/21 03:17:08;;;;;;;2.15;0.25;;;;;;;4.64;100.00;100004.13;4951449;28;20040;-84
2022/11/21 03:19:34;;;;;;;1.67;0.30;;;;;;;4.73;100.00;100006.91;4934310;29;20391;-84
2022/11/21 03:21:59;;;;;;;1.95;0.25;;;;;;;4.79;100.00;100012.41;4933581;29;20047;-84
2022/11/21 03:24:25;;;;;;;0.77;0.20;;;;;;;4.85;100.00;100006.78;4941583;28;20383;-84
2022/11/21 03:26:50;;;;;;;1.08;0.43;;;;;;;4.95;100.00;100012.06;4934690;29;20062;-84
2022/11/21 03:29:16;;;;;;;0.85;0.35;;;;;;;4.99;100.00;100009.09;4932841;29;20483;-84
2022/11/21 03:31:41;;;;;;;2.13;1.02;;;;;;;5.10;100.00;100007.44;4938977;29;20130;-85
2022/11/21 03:34:09;;;;;;;2.45;0.30;;;;;;;5.20;100.00;100006.59;4925302;29;20483;-84
2022/11/21 03:36:34;;;;;;;4.93;0.30;;;;;;;5.03;100.00;100007.09;4934244;29;20039;-85
2022/11/21 03:39:00;;;;;;;3.08;0.85;;;;;;;4.92;100.00;100015.69;4933065;29;20043;-84
2022/11/21 03:41:28;;;;;;;2.40;0.30;;;;;;;4.91;100.00;100011.47;4932901;29;20440;-84
2022/11/21 03:44:00;;;;;;;5.35;0.40;;;;;;;4.95;100.00;100012.88;4933079;29;20062;-84
2022/11/21 03:46:32;;;;;;;1.70;0.40;;;;;;;4.97;100.00;100016.16;4930784;29;20031;-85
2022/11/21 03:48:57;;;;;;;0.88;0.30;;;;;;;5.02;100.00;100020.97;4933735;29;20448;-84
2022/11/21 03:51:23;;;;;;;0.90;0.30;;;;;;;5.02;100.00;100031.28;4933608;29;20110;-84
2022/11/21 03:53:49;;;;;;;7.30;1.20;;;;;;;4.98;100.00;100035.88;4932904;29;20043;-84
2022/11/21 03:56:14;;;;;;;3.78;0.40;;;;;;;4.92;100.00;100035.53;4932245;29;20490;-84
2022/11/21 03:58:40;;;;;;;1.55;0.32;;;;;;;4.77;100.00;100034.13;4936727;29;20063;-84
2022/11/21 04:01:05;;;;;;;1.77;0.32;;;;;;;4.70;100.00;100033.78;4937249;29;20720;-84
2022/11/21 04:03:31;;;;;;;1.52;0.38;;;;;;;4.62;100.00;100031.78;4933532;29;20035;-84
2022/11/21 04:05:57;;;;;;;2.42;0.30;;;;;;;4.58;100.00;100042.47;4935098;29;20103;-84
2022/11/21 04:08:23;;;;;;;1.30;0.38;;;;;;;4.58;100.00;100045.88;4933330;29;20039;-85
2022/11/21 04:10:50;;;;;;;4.05;0.40;;;;;;;4.56;100.00;100046.91;4932844;29;20039;-84
2022/11/21 04:13:16;;;;;;;4.82;0.40;;;;;;;4.62;100.00;100047.28;4933119;29;20456;-84
2022/11/21 04:15:42;;;;;;;0.95;0.32;;;;;;;4.72;100.00;100044.00;4932917;29;20046;-84
2022/11/21 04:18:08;;;;;;;1.05;0.40;;;;;;;4.83;100.00;100046.56;4934551;29;20039;-84
2022/11/21 04:20:34;;;;;;;1.00;0.30;;;;;;;4.87;100.00;100046.19;4939810;28;20035;-84
2022/11/21 04:22:59;;;;;;;2.28;0.40;;;;;;;5.02;100.00;100031.28;4932314;29;20563;-84
2022/11/21 04:25:25;;;;;;;1.48;0.30;;;;;;;5.13;100.00;100040.78;4933504;29;20051;-84
2022/11/21 04:27:50;;;;;;;1.90;0.38;;;;;;;5.23;100.00;100026.19;4926003;29;20044;-84
2022/11/21 04:30:16;;;;;;;4.10;0.30;;;;;;;5.27;100.00;100020.66;4933109;29;20115;-85
2022/11/21 04:32:42;;;;;;;0.68;0.35;;;;;;;5.29;100.00;100025.69;4933740;29;20127;-84
2022/11/21 04:35:08;;;;;;;3.90;0.40;;;;;;;5.27;100.00;100010.31;4933324;29;20095;-85
2022/11/21 04:37:34;;;;;;;1.15;0.30;;;;;;;5.31;100.00;100008.31;4931650;29;20043;-84
2022/11/21 04:39:59;;;;;;;1.33;0.40;;;;;;;5.31;100.00;100001.41;4933349;29;20075;-85
2022/11/21 04:42:25;;;;;;;1.30;0.40;;;;;;;5.30;100.00;100004.91;4931482;29;20098;-84
2022/11/21 04:44:50;;;;;;;0.52;0.20;;;;;;;5.32;100.00;100015.94;4933622;29;20035;-84
2022/11/21 04:47:15;;;;;;;1.42;0.20;;;;;;;5.33;100.00;100021.94;4937137;29;20023;-84
2022/11/21 04:49:41;;;;;;;2.45;0.68;;;;;;;5.32;100.00;100035.78;4933099;29;20035;-84
2022/11/21 04:52:06;;;;;;;1.58;0.38;;;;;;;5.30;100.00;100043.66;4931649;29;20770;-84
2022/11/21 04:54:32;;;;;;;2.67;0.25;;;;;;;5.25;100.00;100042.38;4932974;29;20039;-84
2022/11/21 04:56:57;;;;;;;1.73;0.45;;;;;;;5.20;100.00;100034.19;4933729;28;20035;-84
2022/11/21 04:59:22;;;;;;;4.53;0.77;;;;;;;5.18;100.00;100031.75;4931207;29;20039;-84
2022/11/21 05:01:48;;;;;;;7.13;0.90;;;;;;;5.21;100.00;100028.06;4933390;29;20059;-83
2022/11/21 05:04:13;;;;;;;4.45;0.70;;;;;;;5.25;100.00;100030.28;4932512;29;20094;-84
2022/11/21 05:06:39;;;;;;;1.83;0.40;;;;;;;5.27;100.00;100043.91;4933121;29;20042;-84
2022/11/21 05:09:04;;;;;;;4.03;0.70;;;;;;;5.27;100.00;100037.91;4932923;29;20393;-84
2022/11/21 05:14:14;;;;;;;1.52;0.30;;;;;;;5.19;100.00;100014.47;4934522;28;20051;-84
2022/11/21 05:16:40;;;;;;;1.25;0.30;;;;;;;5.16;100.00;100007.78;4933531;29;20115;-85
2022/11/21 05:19:06;;;;;;;2.90;1.05;;;;;;;5.17;100.00;100000.88;4935884;28;20114;-84
2022/11/21 05:21:31;;;;;;;1.02;0.30;;;;;;;5.22;100.00;99983.22;4930718;29;20472;-84
2022/11/21 05:23:57;;;;;;;4.05;0.60;;;;;;;5.23;100.00;99971.94;4932747;29;20023;-84
2022/11/21 05:26:22;;;;;;;1.45;0.65;;;;;;;5.24;100.00;99981.34;4930600;29;20042;-84
2022/11/21 05:28:48;;;;;;;1.25;0.50;;;;;;;5.22;100.00;99989.19;4925339;29;20043;-84
2022/11/21 05:31:13;;;;;;;1.63;0.30;;;;;;;5.11;100.00;100006.50;4939048;28;20498;-84
2022/11/21 05:33:39;;;;;;;1.23;0.88;;;;;;;5.08;100.00;100011.91;4931468;29;20032;-84
2022/11/21 05:36:04;;;;;;;1.33;0.50;;;;;;;5.07;100.00;100015.44;4932633;29;20039;-84
2022/11/21 05:38:30;;;;;;;2.47;0.90;;;;;;;5.06;100.00;100030.09;4930260;29;20031;-84
2022/11/21 05:40:55;;;;;;;1.20;0.63;;;;;;;5.07;100.00;100028.34;4932614;29;20357;-85
2022/11/21 05:46:05;;;;;;;2.17;0.63;;;;;;;4.92;100.00;100028.59;4939658;29;20459;-84
2022/11/21 05:48:30;;;;;;;1.52;0.60;;;;;;;4.94;100.00;100031.88;4938288;28;20036;-84
2022/11/21 05:50:55;;;;;;;2.55;0.70;;;;;;;4.98;100.00;100042.78;4952428;28;20099;-84
2022/11/21 05:53:21;;;;;;;4.70;1.00;;;;;;;4.92;100.00;100038.09;4953402;29;20037;-84
2022/11/21 05:55:46;;;;;;;2.45;0.77;;;;;;;4.81;100.00;100038.94;4939759;29;20044;-84
2022/11/21 05:58:12;;;;;;;7.95;0.95;;;;;;;4.74;100.00;100035.16;4928782;29;20051;-84
2022/11/21 06:00:38;;;;;;;2.78;0.73;;;;;;;4.72;100.00;100042.25;4928906;29;20131;-84
2022/11/21 06:05:48;;;;;;;1.67;0.68;;;;;;;4.84;100.00;100048.19;4929020;29;20043;-84
2022/11/21 06:08:13;;;;;;;2.58;0.60;;;;;;;4.79;100.00;100050.31;4931436;29;20043;-84
2022/11/21 06:10:39;;;;;;;4.20;0.98;;;;;;;4.78;100.00;100046.91;4930755;29;20043;-84
2022/11/21 06:13:20;;;;;;;2.53;0.90;;;;;;;4.77;100.00;100052.19;4931380;29;20373;-83
2022/11/21 06:15:48;;;;;;;1.63;0.50;;;;;;;4.84;100.00;100051.59;4926232;29;20042;-84
2022/11/21 06:18:13;;;;;;;2.00;0.70;;;;;;;4.85;100.00;100053.25;4930122;29;20059;-83
2022/11/21 06:20:38;;;;;;;2.50;0.80;;;;;;;4.83;100.00;100043.97;4932423;29;20535;-84
2022/11/21 06:23:04;;;;;;;3.33;0.75;;;;;;;4.84;100.00;100046.44;4930878;29;20130;-84
2022/11/21 06:25:29;;;;;;;6.07;1.20;;;;;;;4.87;100.00;100041.03;4933403;29;20047;-83
2022/11/21 06:27:55;;;;;;;2.75;0.60;;;;;;;4.90;100.00;100030.47;4931424;29;20062;-84
2022/11/21 06:30:20;;;;;;;3.95;1.27;;;;;;;4.87;100.00;100022.97;4930182;29;20055;-83
2022/11/21 06:32:46;;;;;;;1.00;0.60;;;;;;;4.87;100.00;100030.72;4934603;29;20087;-84
2022/11/21 06:35:11;;;;;;;2.28;0.40;;;;;;;4.88;100.00;100032.34;4930073;29;20141;-84
2022/11/21 06:37:37;;;;;;;2.63;0.40;;;;;;;4.84;100.00;100040.44;4934131;29;20023;-84
2022/11/21 06:40:03;;;;;;;1.08;0.47;;;;;;;4.80;100.00;100034.69;4934260;29;20531;-84
2022/11/21 06:42:28;;;;;;;1.60;0.50;;;;;;;4.82;100.00;100037.16;4935094;29;20043;-84
2022/11/21 06:44:53;;;;;;;1.55;0.80;;;;;;;4.85;100.00;100036.94;4935605;29;20047;-84
2022/11/21 06:47:19;;;;;;;1.98;0.40;;;;;;;4.86;100.00;100043.72;4942166;29;20118;-84
2022/11/21 06:49:44;;;;;;;10.82;0.70;;;;;;;4.87;100.00;100056.53;4933912;28;20087;-84
2022/11/21 06:52:10;;;;;;;2.70;0.38;;;;;;;4.86;100.00;100057.47;4933965;29;20210;-84
2022/11/21 06:54:35;;;;;;;2.40;0.40;;;;;;;4.79;100.00;100048.53;4933877;29;20039;-84
2022/11/21 06:57:01;;;;;;;1.75;0.60;;;;;;;4.73;100.00;100043.84;4937709;29;20090;-84
2022/11/21 06:59:26;;;;;;;4.20;1.73;;;;;;;4.67;100.00;100041.75;4938316;28;20391;-84
2022/11/21 07:01:52;;;;;;;2.25;0.63;;;;;;;4.62;100.00;100051.63;4937310;28;20318;-84
2022/11/21 07:04:17;;;;;;;1.98;0.40;;;;;;;4.62;100.00;100051.63;4930849;29;20035;-84
2022/11/21 07:06:42;;;;;;;1.23;0.50;;;;;;;4.59;100.00;100057.00;4935036;29;20055;-84
2022/11/21 07:09:08;;;;;;;1.85;0.60;;;;;;;4.55;100.00;100060.75;4942826;28;20487;-84
2022/11/21 07:11:34;;;;;;;2.10;0.60;;;;;;;4.55;100.00;100061.56;4930258;28;20031;-83
2022/11/21 07:13:59;;;;;;;2.15;0.40;;;;;;;4.62;100.00;100064.50;4932399;29;20028;-83
2022/11/21 07:16:28;;;;;;;3.13;0.47;;;;;;;4.67;100.00;100065.00;4931037;29;20095;-83
2022/11/21 07:18:54;;;;;;;3.25;0.98;;;;;;;4.70;100.00;100064.75;4933619;28;20103;-84
2022/11/21 07:21:19;;;;;;;7.30;2.78;;;;;;;4.65;100.00;100056.53;4933868;29;20043;-83
2022/11/21 07:23:45;;;;;;;9.07;2.95;;;;;;;4.57;100.00;100061.47;4933363;29;20813;-83
2022/11/21 07:26:11;;;;;;;5.88;2.25;;;;;;;4.57;100.00;100058.88;4934196;29;20055;-83
2022/11/21 07:28:37;;;;;;;5.38;1.08;;;;;;;4.69;100.00;100057.94;4932627;29;20091;-83
2022/11/21 07:31:02;;;;;;;3.92;0.60;;;;;;;4.79;100.00;100052.88;4933757;29;20475;-84
2022/11/21 07:33:28;;;;;;;7.10;1.30;;;;;;;4.87;100.00;100059.09;4932043;29;20074;-85
2022/11/21 07:35:57;;;;;;;2.83;0.80;;;;;;;4.93;100.00;100055.22;4934885;28;20045;-83
2022/11/21 07:38:24;;;;;;;1.48;0.90;;;;;;;4.97;100.00;100052.31;4934281;28;20040;-83
2022/11/21 07:40:49;;;;;;;1.40;0.50;;;;;;;5.03;100.00;100039.84;4930370;28;20470;-83
2022/11/21 07:43:14;;;;;;;4.13;2.33;;;;;;;5.09;100.00;100040.19;4934285;29;20031;-83
2022/11/21 07:45:40;;;;;;;15.48;2.45;;;;;;;5.11;100.00;100040.09;4937072;29;20171;-83
2022/11/21 07:48:07;;;;;;;6.43;2.45;;;;;;;4.98;100.00;100033.28;4934324;29;20046;-82
2022/11/21 07:50:32;;;;;;;6.45;3.25;;;;;;;4.90;100.00;100027.06;4935113;29;20107;-83
2022/11/21 07:52:58;;;;;;;7.80;2.67;;;;;;;4.88;100.00;100036.69;4932959;29;20183;-83
2022/11/21 07:55:25;;;;;;;4.55;2.05;;;;;;;4.87;100.00;100019.56;4941256;28;20038;-82
2022/11/21 07:58:01;;;;;;;3.50;1.80;;;;;;;4.97;100.00;100023.91;4936005;29;20122;-82
2022/11/21 08:00:28;;;;;;;2.92;1.30;;;;;;;5.05;100.00;100020.72;4935946;29;20024;-82
2022/11/21 08:02:53;;;;;;;5.07;1.60;;;;;;;5.13;100.00;100028.69;4939985;28;20094;-83
2022/11/21 08:05:18;;;;;;;1.70;0.75;;;;;;;5.26;100.00;100031.09;4931070;29;20036;-84
2022/11/21 08:07:44;;;;;;;2.35;0.70;;;;;;;5.37;100.00;100033.66;4936197;28;20040;-83
2022/11/21 08:10:10;;;;;;;4.93;1.23;;;;;;;5.46;100.00;100038.13;4943670;28;20042;-83
2022/11/21 08:12:35;;;;;;;7.95;1.10;;;;;;;5.57;100.00;100035.50;4932426;29;20456;-84
2022/11/21 08:15:01;;;;;;;4.18;1.05;;;;;;;5.62;100.00;100037.72;4931513;29;20039;-85
2022/11/21 08:17:26;;;;;;;1.92;0.55;;;;;;;5.74;100.00;100049.63;4937211;29;20039;-84
2022/11/21 08:19:52;;;;;;;2.33;0.73;;;;;;;5.91;100.00;100053.47;4933088;29;20035;-85
2022/11/21 08:22:17;;;;;;;2.15;1.00;;;;;;;5.95;100.00;100055.69;4928820;29;20051;-84
2022/11/21 08:24:42;;;;;;;5.53;2.45;;;;;;;6.01;100.00;100058.72;4932767;29;20043;-84
2022/11/21 08:27:08;;;;;;;1.25;0.70;;;;;;;6.13;100.00;100075.84;4935417;29;20486;-84
2022/11/21 08:29:33;;;;;;;1.42;0.40;;;;;;;6.20;100.00;100080.34;4932319;29;20023;-84
2022/11/21 08:31:59;;;;;;;8.57;0.50;;;;;;;6.32;99.39;100083.72;4933078;29;20074;-84
2022/11/21 08:34:24;;;;;;;0.98;0.50;;;;;;;6.33;99.41;100082.75;4937270;28;20047;-84
2022/11/21 08:36:49;;;;;;;0.90;0.40;;;;;;;6.33;98.35;100073.22;4931415;29;20055;-84
2022/11/21 08:39:15;;;;;;;2.00;0.40;;;;;;;6.40;98.49;100076.13;4932052;29;20514;-84
2022/11/21 08:44:24;;;;;;;1.83;0.40;;;;;;;6.50;99.03;100079.59;4935648;29;20391;-83
2022/11/21 08:46:50;;;;;;;3.10;0.40;;;;;;;6.58;98.51;100068.63;4936463;28;20039;-83
2022/11/21 08:49:15;;;;;;;4.00;0.40;;;;;;;6.61;99.13;100061.41;4931891;29;20035;-83
2022/11/21 08:51:40;;;;;;;0.68;0.30;;;;;;;6.70;98.12;100053.78;4931717;29;20032;-83
2022/11/21 08:54:07;;;;;;;3.70;0.65;;;;;;;6.77;97.30;100042.78;4932833;29;20390;-84
2022/11/21 08:56:32;;;;;;;1.10;0.30;;;;;;;6.79;97.97;100046.06;4930166;29;20039;-82
2022/11/21 08:58:58;;;;;;;1.17;0.75;;;;;;;6.80;98.25;100047.72;4925403;29;20032;-83
2022/11/21 09:01:23;;;;;;;2.25;0.38;;;;;;;6.79;99.03;100051.25;4936285;29;20158;-83
2022/11/21 09:03:48;;;;;;;0.93;0.40;;;;;;;6.80;99.86;100062.44;4932687;29;20066;-83
2022/11/21 09:06:14;;;;;;;5.95;0.60;;;;;;;6.82;99.59;100051.00;4930424;29;20050;-83
2022/11/21 09:08:40;;;;;;;1.23;0.52;;;;;;;6.83;99.65;100062.16;4935432;28;20518;-83
2022/11/21 09:11:07;;;;;;;4.90;0.40;;;;;;;6.90;98.82;100066.69;4931258;29;20055;-83
2022/11/21 09:13:34;;;;;;;0.65;0.20;;;;;;;6.97;98.44;100070.41;4928932;29;20064;-83
2022/11/21 09:18:43;;;;;;;0.55;0.17;;;;;;;7.07;97.24;100057.50;4926916;29;20462;-83
2022/11/21 09:21:16;;;;;;;2.25;0.20;;;;;;;7.15;96.97;100051.63;4938904;29;20035;-83
2022/11/21 09:23:42;;;;;;;0.85;0.20;;;;;;;7.18;96.71;100053.97;4924593;29;20059;-83
2022/11/21 09:26:08;;;;;;;4.43;0.20;;;;;;;7.27;94.80;100041.03;4932931;29;20035;-83
2022/11/21 09:28:37;;;;;;;0.70;0.20;;;;;;;7.38;94.70;100034.91;4930644;29;20114;-83
2022/11/21 09:31:04;;;;;;;1.35;0.10;;;;;;;7.40;94.80;100035.59;4935756;29;20462;-83
2022/11/21 09:33:30;;;;;;;2.88;0.30;;;;;;;7.56;93.27;100025.50;4929876;29;20114;-83
2022/11/21 09:35:59;;;;;;;2.03;0.20;;;;;;;7.72;92.11;100021.56;4934597;29;20172;-83
2022/11/21 09:38:25;;;;;;;2.35;0.40;;;;;;;7.76;92.60;100009.94;4930983;29;20079;-83
2022/11/21 09:40:57;;;;;;;3.60;0.45;;;;;;;7.97;90.85;100002.84;4935876;29;20058;-83
2022/11/21 09:44:01;;;;;;;1.92;0.40;;;;;;;8.11;87.59;99999.78;4930376;29;20502;-83
2022/11/21 09:46:36;;;;;;;0.50;0.20;;;;;;;8.04;90.44;100003.06;4890055;29;20140;-83
2022/11/21 09:49:08;;;;;;;2.30;0.68;;;;;;;7.98;91.45;99996.69;4934136;29;20349;-83
2022/11/21 09:51:37;;;;;;;2.80;0.35;;;;;;;7.95;92.36;99996.97;4930993;29;20148;-83
2022/11/21 09:54:08;;;;;;;0.82;0.30;;;;;;;7.91;92.57;99998.22;4932540;29;20513;-83
2022/11/21 09:56:38;;;;;;;0.73;0.20;;;;;;;7.89;92.96;99994.94;4930929;29;20067;-83
2022/11/21 09:59:07;;;;;;;0.50;0.13;;;;;;;7.94;92.15;99990.97;4932985;28;20137;-83
2022/11/21 10:01:32;;;;;;;1.83;0.40;;;;;;;8.02;91.19;100003.25;4926596;29;20071;-83
2022/11/21 10:04:01;;;;;;;1.48;0.20;;;;;;;8.08;90.93;99991.47;4927225;29;20150;-83
2022/11/21 10:06:30;;;;;;;1.48;0.50;;;;;;;8.09;91.46;100001.69;4935691;29;20096;-83
2022/11/21 10:09:08;;;;;;;0.90;0.25;;;;;;;8.03;91.74;99994.50;4936377;29;20047;-84
2022/11/21 10:14:37;;;;;;;0.68;0.20;;;;;;;7.98;91.60;99984.53;4937210;29;20051;-83
2022/11/21 10:17:27;;;;;;;0.95;0.30;;;;;;;8.01;89.19;99987.81;4936236;29;20114;-83
2022/11/21 10:20:09;;;;;;;0.20;0.10;;;;;;;8.08;89.48;99989.69;4934791;29;20035;-83
2022/11/21 10:22:48;;;;;;;0.40;0.22;;;;;;;8.16;89.06;99987.22;4938169;29;20074;-83
2022/11/21 10:25:23;;;;;;;0.90;0.10;;;;;;;8.23;88.51;99987.47;4935008;29;20028;-83
2022/11/21 10:28:00;;;;;;;0.38;0.08;;;;;;;8.35;88.37;99980.38;4935973;29;20038;-83
2022/11/21 10:30:25;;;;;;;4.28;0.10;;;;;;;8.46;86.60;99980.19;4941191;29;20039;-83
2022/11/21 10:33:04;;;;;;;0.45;0.25;;;;;;;8.55;84.30;99981.91;4941044;29;20028;-83
2022/11/21 10:35:56;;;;;;;0.68;0.10;;;;;;;8.56;83.66;99973.97;4932781;29;23708;-83
2022/11/21 10:38:30;;;;;;;0.68;0.05;;;;;;;8.51;85.73;99972.78;4948645;28;20047;-84
2022/11/21 10:41:06;;;;;;;1.25;0.20;;;;;;;8.55;85.49;99967.16;4929541;29;20051;-84
2022/11/21 10:46:23;;;;;;;0.77;0.20;;;;;;;8.63;85.53;99969.03;4932963;29;20486;-85
2022/11/21 10:48:57;;;;;;;0.50;0.13;;;;;;;8.68;86.01;99971.22;4933551;29;20019;-84
2022/11/21 10:51:52;;;;;;;0.50;0.20;;;;;;;8.74;85.09;99970.63;4930541;29;20031;-84
2022/11/21 10:54:32;;;;;;;0.70;0.20;;;;;;;8.73;86.33;99980.19;4934000;28;20111;-85
2022/11/21 10:57:14;;;;;;;0.47;0.10;;;;;;;8.72;84.95;99973.38;4939692;28;20098;-85
2022/11/21 10:59:40;;;;;;;1.20;0.10;;;;;;;8.76;86.43;99974.72;4933288;29;20031;-85
2022/11/21 11:02:11;;;;;;;0.52;0.10;;;;;;;8.79;87.02;99981.41;4934678;29;20538;-85
2022/11/21 11:04:37;;;;;;;1.17;0.50;;;;;;;8.78;87.65;99983.19;4927436;29;20464;-85
2022/11/21 11:07:24;;;;;;;0.90;0.30;;;;;;;8.83;85.29;99980.16;4934591;29;20086;-84
2022/11/21 11:09:51;;;;;;;1.10;0.20;;;;;;;8.87;87.16;99971.94;4927125;29;20535;-84
2022/11/21 11:12:19;;;;;;;0.63;0.20;;;;;;;8.87;87.48;99952.94;4929612;29;20511;-85
2022/11/21 11:14:50;;;;;;;0.52;0.20;;;;;;;8.89;87.47;99944.03;4932396;29;20488;-84
2022/11/21 11:17:24;;;;;;;0.40;0.10;;;;;;;8.95;87.55;99945.22;4933057;29;20051;-85
2022/11/21 11:20:26;;;;;;;0.60;0.10;;;;;;;8.97;85.80;99951.91;4933201;29;20035;-84
2022/11/21 11:22:52;;;;;;;0.55;0.20;;;;;;;8.98;87.26;99948.31;4928576;29;20132;-85
2022/11/21 11:25:17;;;;;;;1.30;0.22;;;;;;;9.03;86.42;99937.50;4932282;29;20483;-84
2022/11/21 11:27:42;;;;;;;2.13;0.20;;;;;;;9.05;86.18;99938.16;4934535;29;20491;-84
2022/11/21 11:30:14;;;;;;;2.13;0.10;;;;;;;9.10;85.80;99941.13;4932928;29;20563;-84
2022/11/21 11:32:40;;;;;;;0.73;0.10;;;;;;;9.22;85.26;99926.16;4933409;29;20031;-84
2022/11/21 11:35:28;;;;;;;0.38;0.10;;;;;;;9.20;83.68;99931.50;4932794;29;20401;-84
2022/11/21 11:38:03;;;;;;;0.47;0.10;;;;;;;9.18;85.30;99933.41;4928724;29;20036;-84
2022/11/21 11:40:36;;;;;;;0.20;0.10;;;;;;;9.21;84.59;99937.50;4933513;29;20400;-84
2022/11/21 11:53:22;;;;;;;0.68;0.15;;;;;;;9.12;87.54;99928.81;4927457;29;20040;-84
2022/11/21 11:55:55;;;;;;;0.63;0.17;;;;;;;9.20;88.29;99928.06;4930986;29;20032;-85
2022/11/21 11:58:27;;;;;;;0.70;0.30;;;;;;;9.26;87.24;99936.09;4930791;29;20555;-84
2022/11/21 12:01:04;;;;;;;1.40;0.20;;;;;;;9.30;87.78;99921.84;4929564;29;20115;-85
2022/11/21 12:03:47;;;;;;;0.82;0.20;;;;;;;9.22;86.68;99928.75;4928709;29;20035;-86